Airfield :







YOU CAN JOIN US ON...

 
LOGIN :

Register | Disclaimer

   EN    FR    IT 

 









Legend :    VFR   Marginal VFR   IFR   Intensive IFR   Very Intensive IFR
Visi :
Ceiling :
>= 8 km
>= 3000ft
5 to 8 km
1000 to 3000 ft
1500m to 5 km
500 to 1000 ft
800 to 1500m
200 to 500 ft
< 800m
< 200 ft
Symbols :   Thunderstorms  Fog  Heavy snow  Heavy precipitations  Wind > 20 kt







- Airport Elevation : 285 ft
- IATA code : ALB


KALB - Albany International

CURRENT METAR :
  • 262351Z 33005KT 10SM FEW047TCU SCT070 SCT110 BKN210 27/18 A2998 RMK AO2 LTG DSNT NE AND E RAB2254E12 TSE49 SLP152 OCNL LTGCG DSNT NE-E CB DSNT NE-E MOV E TCU SW-S P0005 60005 T02670178 10306 20261 53008

EXPIRED METARs :
  • 262251Z 18008KT 10SM TS FEW050CB BKN075 BKN090 BKN210 28/16 A2995 RMK AO2 LTG DSNT N TSB51 SLP140 OCNL LTGCG N TS N MOV E T02830161
  • 262151Z 16009KT 10SM FEW050 BKN250 29/16 A2995 RMK AO2 SLP141 CB DSNT SW AND NW MOV E T02890161

TAF KALB
Valid from the 27 at 00:00 until the 28 at 00:00 UTC


262331Z 2700/2724 16009KT P6SM FEW050 BKN250
FM270100 VRB03KT P6SM SCT250
FM271700 29011KT P6SM FEW250
KZBW FIR / North America



MET'MAP, your aeronautical weather chart ! - Copyright ORBIFLY December 2007 - Disclaimer

ORBIFLY MET'MAP TEAM :

Programming & Development : Alexandra Zaïnal
Concept & Development : Baudouin d'Aumeries
Co-Development & Prog : Marc-Olivier Méhu
Technical & hardware support : Manuel Goepfert

Contact : metmap@orbifly.com




SOURCES & CREDITS :

   NOAA